createdAt,value
2018-02-12T00:00:01.882Z,99675.69
2018-02-12T00:02:29.953Z,99684.52
2018-02-12T00:04:58.329Z,99691.42
2018-02-12T00:07:26.704Z,99691.14
2018-02-12T00:09:55.028Z,99683.64
2018-02-12T00:12:23.352Z,99684.70
2018-02-12T00:14:51.669Z,99685.53
2018-02-12T00:17:19.980Z,99686.51
2018-02-12T00:19:48.321Z,99691.59
2018-02-12T00:22:16.665Z,99688.67
2018-02-12T00:24:44.993Z,99692.89
2018-02-12T00:27:13.313Z,99691.03
2018-02-12T00:29:41.651Z,99686.31
2018-02-12T00:32:09.957Z,99685.62
2018-02-12T00:34:38.268Z,99690.81
2018-02-12T00:37:06.596Z,99690.88
2018-02-12T00:39:34.910Z,99692.26
2018-02-12T00:42:03.237Z,99697.73
2018-02-12T00:44:31.644Z,99699.92
2018-02-12T00:47:00.026Z,99705.09
2018-02-12T00:49:28.345Z,99712.68
2018-02-12T00:51:56.781Z,99711.37
2018-02-12T00:54:25.161Z,99715.72
2018-02-12T00:56:53.497Z,99720.36
2018-02-12T00:59:21.909Z,99716.08
2018-02-12T01:01:50.289Z,99718.39
2018-02-12T01:04:18.597Z,99727.32
2018-02-12T01:06:46.953Z,99731.43
2018-02-12T01:09:15.322Z,99724.93
2018-02-12T01:11:43.693Z,99725.81
2018-02-12T01:14:12.029Z,99727.20
2018-02-12T01:16:40.332Z,99727.64
2018-02-12T01:19:08.671Z,99726.40
2018-02-12T01:21:36.996Z,99723.30
2018-02-12T01:24:05.377Z,99734.69
2018-02-12T01:26:33.685Z,99730.27
2018-02-12T01:29:02.022Z,99739.98
2018-02-12T01:31:30.404Z,99731.28
2018-02-12T01:33:58.737Z,99736.09
2018-02-12T01:36:27.053Z,99738.88
2018-02-12T01:38:55.646Z,99741.70
2018-02-12T01:41:23.953Z,99743.89
2018-02-12T01:43:52.301Z,99750.41
2018-02-12T01:46:20.673Z,99751.16
2018-02-12T01:48:49.054Z,99754.28
2018-02-12T01:51:17.369Z,99759.75
2018-02-12T01:53:45.805Z,99763.22
2018-02-12T01:56:14.125Z,99768.06
2018-02-12T01:58:42.436Z,99767.48
2018-02-12T02:01:10.769Z,99766.54
2018-02-12T02:03:39.086Z,99762.55
2018-02-12T02:06:07.434Z,99770.82
2018-02-12T02:08:35.763Z,99771.18
2018-02-12T02:11:04.092Z,99772.96
2018-02-12T02:13:32.508Z,99774.12
2018-02-12T02:16:00.853Z,99777.52
2018-02-12T02:18:29.212Z,99782.54
2018-02-12T02:20:57.556Z,99778.09
2018-02-12T02:23:25.874Z,99783.09
2018-02-12T02:25:54.204Z,99785.29
2018-02-12T02:28:22.577Z,99786.33
2018-02-12T02:30:50.918Z,99791.98
2018-02-12T02:33:19.333Z,99794.38
2018-02-12T02:35:49.498Z,99793.08
2018-02-12T02:38:17.825Z,99792.64
2018-02-12T02:40:46.206Z,99789.42
2018-02-12T02:43:14.577Z,99785.88
2018-02-12T02:45:42.949Z,99789.50
2018-02-12T02:48:11.289Z,99794.23
2018-02-12T02:50:39.609Z,99791.45
2018-02-12T02:53:07.954Z,99798.30
2018-02-12T02:55:36.268Z,99786.16
2018-02-12T02:58:04.601Z,99786.08
2018-02-12T03:00:32.959Z,99792.70
2018-02-12T03:03:01.393Z,99792.83
2018-02-12T03:05:29.708Z,99795.84
2018-02-12T03:07:58.049Z,99802.45
2018-02-12T03:10:26.416Z,99805.20
2018-02-12T03:12:54.810Z,99811.02
2018-02-12T03:15:23.128Z,99814.12
2018-02-12T03:17:51.457Z,99816.69
2018-02-12T03:20:19.777Z,99818.88
2018-02-12T03:22:48.213Z,99814.55
2018-02-12T03:25:16.585Z,99814.66
2018-02-12T03:27:44.961Z,99824.61
2018-02-12T03:30:13.285Z,99830.79
2018-02-12T03:32:41.717Z,99824.73
2018-02-12T03:35:10.105Z,99832.09
2018-02-12T03:37:38.473Z,99841.17
2018-02-12T03:40:06.792Z,99845.77
2018-02-12T03:42:35.242Z,99844.53
2018-02-12T03:45:03.561Z,99845.81
2018-02-12T03:47:31.980Z,99852.67
2018-02-12T03:50:00.356Z,99856.22
2018-02-12T03:52:28.695Z,99857.10
2018-02-12T03:54:57.113Z,99855.78
2018-02-12T03:57:25.489Z,99856.61
2018-02-12T03:59:53.861Z,99857.98
2018-02-12T04:02:22.245Z,99865.59
2018-02-12T04:04:50.624Z,99868.81
2018-02-12T04:07:18.961Z,99865.38
2018-02-12T04:09:47.373Z,99869.39
2018-02-12T04:12:15.754Z,99867.56
2018-02-12T04:14:44.065Z,99878.55
2018-02-12T04:17:12.504Z,99876.41
2018-02-12T04:19:40.881Z,99881.14
2018-02-12T04:22:09.221Z,99883.05
2018-02-12T04:24:37.565Z,99882.61
2018-02-12T04:27:05.905Z,99877.45
2018-02-12T04:29:34.225Z,99884.94
2018-02-12T04:32:02.666Z,99885.74
2018-02-12T04:34:30.985Z,99892.75
2018-02-12T04:36:59.416Z,99894.97
2018-02-12T04:39:27.737Z,99903.16
2018-02-12T04:41:56.178Z,99910.51
2018-02-12T04:44:24.502Z,99909.87
2018-02-12T04:46:52.809Z,99914.42
2018-02-12T04:49:21.204Z,99912.06
2018-02-12T04:51:49.524Z,99916.83
2018-02-12T04:54:17.861Z,99915.48
2018-02-12T04:56:46.181Z,99917.77
2018-02-12T04:59:14.521Z,99918.28
2018-02-12T05:01:42.842Z,99922.95
2018-02-12T05:04:11.182Z,99925.64
2018-02-12T05:06:39.506Z,99923.38
2018-02-12T05:09:07.841Z,99922.58
2018-02-12T05:11:36.158Z,99930.13
2018-02-12T05:14:04.499Z,99931.65
2018-02-12T05:16:32.818Z,99930.33
2018-02-12T05:19:01.153Z,99941.30
2018-02-12T05:21:29.469Z,99939.13
2018-02-12T05:23:58.681Z,99944.48
2018-02-12T05:26:26.998Z,99943.44
2018-02-12T05:28:55.340Z,99956.57
2018-02-12T05:31:23.657Z,99954.77
2018-02-12T05:33:51.998Z,99949.16
2018-02-12T05:36:20.318Z,99957.21
2018-02-12T05:38:48.657Z,99954.53
2018-02-12T05:41:16.979Z,99957.27
2018-02-12T05:43:45.324Z,99958.02
2018-02-12T05:46:14.561Z,99960.32
2018-02-12T05:48:42.908Z,99963.75
2018-02-12T05:51:11.222Z,99979.03
2018-02-12T05:53:39.686Z,99973.69
2018-02-12T05:56:08.023Z,99973.27
2018-02-12T05:58:36.853Z,99978.44
2018-02-12T06:01:05.170Z,99978.55
2018-02-12T06:03:33.513Z,99988.30
2018-02-12T06:06:01.837Z,99987.98
2018-02-12T06:08:30.181Z,99985.96
2018-02-12T06:10:58.521Z,99997.12
2018-02-12T06:13:27.181Z,99994.62
2018-02-12T06:15:56.428Z,100004.82
2018-02-12T06:18:24.782Z,100007.95
2018-02-12T06:20:53.109Z,100018.45
2018-02-12T06:23:21.453Z,100022.70
2018-02-12T06:25:49.781Z,100023.64
2018-02-12T06:28:18.129Z,100025.77
2018-02-12T06:30:46.453Z,100033.04
2018-02-12T06:33:14.806Z,100036.16
2018-02-12T06:35:43.134Z,100034.73
2018-02-12T06:38:11.477Z,100042.52
2018-02-12T06:40:39.806Z,100037.84
2018-02-12T06:43:08.153Z,100051.73
2018-02-12T06:45:36.490Z,100053.09
2018-02-12T06:48:04.853Z,100054.66
2018-02-12T06:50:33.206Z,100061.76
2018-02-12T06:53:01.845Z,100060.94
2018-02-12T06:55:30.193Z,100070.47
2018-02-12T06:57:58.526Z,100066.50
2018-02-12T07:00:26.881Z,100066.12
2018-02-12T07:02:55.209Z,100075.72
2018-02-12T07:05:23.558Z,100080.89
2018-02-12T07:07:51.889Z,100078.64
2018-02-12T07:10:20.237Z,100070.41
2018-02-12T07:12:49.482Z,100076.52
2018-02-12T07:15:17.833Z,100080.88
2018-02-12T07:17:46.165Z,100079.95
2018-02-12T07:20:14.517Z,100084.75
2018-02-12T07:22:42.849Z,100090.34
2018-02-12T07:25:11.364Z,100085.61
2018-02-12T07:27:39.759Z,100096.89
2018-02-12T07:30:08.089Z,100100.81
2018-02-12T07:32:37.213Z,100107.13
2018-02-12T07:35:05.565Z,100113.66
2018-02-12T07:37:33.894Z,100111.31
2018-02-12T07:40:02.257Z,100124.34
2018-02-12T07:42:30.662Z,100120.64
2018-02-12T07:44:59.004Z,100124.20
2018-02-12T07:47:27.330Z,100131.48
2018-02-12T07:49:55.688Z,100134.11
2018-02-12T07:52:24.010Z,100130.62
2018-02-12T07:54:52.385Z,100142.39
2018-02-12T07:57:20.903Z,100149.69
2018-02-12T07:59:49.229Z,100145.71
2018-02-12T08:02:17.562Z,100153.56
2018-02-12T08:04:45.909Z,100155.30
2018-02-12T08:07:14.237Z,100165.72
2018-02-12T08:09:42.589Z,100162.79
2018-02-12T08:12:11.382Z,100161.09
2018-02-12T08:14:39.721Z,100168.51
2018-02-12T08:17:08.054Z,100170.62
2018-02-12T08:19:36.400Z,100178.47
2018-02-12T08:22:04.733Z,100177.17
2018-02-12T08:24:33.541Z,100187.20
2018-02-12T08:27:02.553Z,100188.56
2018-02-12T08:29:30.884Z,100193.20
2018-02-12T08:31:59.214Z,100198.91
2018-02-12T08:34:27.563Z,100199.63
2018-02-12T08:36:55.885Z,100201.81
2018-02-12T08:39:24.239Z,100206.98
2018-02-12T08:41:52.561Z,100207.75
2018-02-12T08:44:20.909Z,100203.36
2018-02-12T08:46:49.233Z,100200.70
2018-02-12T08:49:17.579Z,100204.62
2018-02-12T08:51:45.901Z,100198.97
2018-02-12T08:54:14.227Z,100195.85
2018-02-12T08:56:42.573Z,100201.45
2018-02-12T08:59:10.897Z,100205.14
2018-02-12T09:01:39.293Z,100211.50
2018-02-12T09:04:10.346Z,100210.44
2018-02-12T09:06:38.814Z,100223.03
2018-02-12T09:09:07.233Z,100224.78
2018-02-12T09:11:35.576Z,100232.53
2018-02-12T09:14:03.901Z,100237.37
2018-02-12T09:16:32.250Z,100251.16
2018-02-12T09:19:00.569Z,100251.22
2018-02-12T09:21:28.909Z,100253.80
2018-02-12T09:23:57.229Z,100251.53
2018-02-12T09:26:25.573Z,100266.53
2018-02-12T09:28:53.900Z,100270.24
2018-02-12T09:31:22.237Z,100276.73
2018-02-12T09:33:50.556Z,100281.31
2018-02-12T09:36:19.805Z,100293.05
2018-02-12T09:38:48.125Z,100280.06
2018-02-12T09:41:16.486Z,100285.78
2018-02-12T09:43:44.818Z,100288.30
2018-02-12T09:46:13.161Z,100289.11
2018-02-12T09:48:41.480Z,100295.11
2018-02-12T09:51:10.869Z,100296.71
2018-02-12T09:53:40.022Z,100302.31
2018-02-12T09:56:08.421Z,100303.58
2018-02-12T09:58:36.740Z,100306.47
2018-02-12T10:01:05.090Z,100309.95
2018-02-12T10:03:33.413Z,100315.41
2018-02-12T10:06:01.758Z,100318.02
2018-02-12T10:08:30.077Z,100320.52
2018-02-12T10:10:58.907Z,100322.66
2018-02-12T10:13:27.233Z,100328.66
2018-02-12T10:15:55.573Z,100329.58
2018-02-12T10:18:23.893Z,100334.71
2018-02-12T10:20:52.953Z,100340.66
2018-02-12T10:23:21.273Z,100346.52
2018-02-12T10:25:49.622Z,100344.59
2018-02-12T10:28:17.937Z,100354.08
2018-02-12T10:30:46.278Z,100358.02
2018-02-12T10:33:14.600Z,100360.64
2018-02-12T10:35:43.042Z,100365.50
2018-02-12T10:38:11.358Z,100370.81
2018-02-12T10:40:39.741Z,100384.42
2018-02-12T10:43:08.057Z,100385.36
2018-02-12T10:45:36.393Z,100383.34
2018-02-12T10:48:04.791Z,100386.52
2018-02-12T10:50:33.201Z,100394.31
2018-02-12T10:53:01.516Z,100396.05
2018-02-12T10:55:30.021Z,100400.64
2018-02-12T10:57:58.321Z,100397.08
2018-02-12T11:00:26.836Z,100400.78
2018-02-12T11:02:55.173Z,100402.86
2018-02-12T11:05:24.121Z,100403.80
2018-02-12T11:07:52.438Z,100410.59
2018-02-12T11:10:20.808Z,100412.03
2018-02-12T11:12:51.702Z,100422.09
2018-02-12T11:15:21.828Z,100410.39
2018-02-12T11:17:50.444Z,100410.59
2018-02-12T11:20:18.833Z,100410.95
2018-02-12T11:22:52.902Z,100410.36
2018-02-12T11:25:22.453Z,100415.91
2018-02-12T11:27:50.794Z,100421.21
2018-02-12T11:30:19.131Z,100427.83
2018-02-12T11:32:47.753Z,100423.27
2018-02-12T11:35:16.684Z,100430.65
2018-02-12T11:37:45.137Z,100430.83
2018-02-12T11:40:13.530Z,100435.75
2018-02-12T11:42:41.917Z,100439.13
2018-02-12T11:45:20.553Z,100441.77
2018-02-12T11:47:49.110Z,100438.56
2018-02-12T11:50:17.483Z,100441.19
2018-02-12T11:52:45.961Z,100445.69
2018-02-12T11:55:14.342Z,100440.09
2018-02-12T11:57:42.838Z,100436.91
2018-02-12T12:00:11.146Z,100435.45
2018-02-12T12:02:39.631Z,100437.89
2018-02-12T12:05:08.007Z,100443.42
2018-02-12T12:07:36.590Z,100439.78
2018-02-12T12:10:05.022Z,100439.53
2018-02-12T12:12:33.877Z,100431.72
2018-02-12T12:15:02.231Z,100436.12
2018-02-12T12:17:30.753Z,100428.20
2018-02-12T12:19:59.237Z,100434.70
2018-02-12T12:22:27.565Z,100430.99
2018-02-12T12:24:55.885Z,100428.88
2018-02-12T12:27:24.353Z,100437.80
2018-02-12T12:29:52.769Z,100436.59
2018-02-12T12:32:21.345Z,100429.23
2018-02-12T12:34:49.686Z,100436.40
2018-02-12T12:37:18.137Z,100436.27
2018-02-12T12:39:46.562Z,100435.59
2018-02-12T12:42:14.897Z,100440.91
2018-02-12T12:44:43.453Z,100433.77
2018-02-12T12:47:11.909Z,100434.98
2018-02-12T12:49:40.235Z,100441.63
2018-02-12T12:52:08.596Z,100436.59
2018-02-12T12:54:36.910Z,100438.31
2018-02-12T12:57:05.309Z,100436.75
2018-02-12T12:59:33.738Z,100439.91
2018-02-12T13:02:02.166Z,100433.47
2018-02-12T13:04:31.153Z,100439.66
2018-02-12T13:06:59.525Z,100433.09
2018-02-12T13:09:27.909Z,100426.38
2018-02-12T13:11:56.287Z,100431.41
2018-02-12T13:14:24.610Z,100431.15
2018-02-12T13:16:52.994Z,100427.08
2018-02-12T13:19:21.313Z,100432.13
2018-02-12T13:21:49.658Z,100425.17
2018-02-12T13:24:18.020Z,100426.14
2018-02-12T13:26:46.341Z,100426.73
2018-02-12T13:29:14.726Z,100436.59
2018-02-12T13:31:43.046Z,100433.09
2018-02-12T13:34:11.384Z,100434.21
2018-02-12T13:36:39.709Z,100430.48
2018-02-12T13:39:08.059Z,100433.84
2018-02-12T13:41:36.401Z,100428.30
2018-02-12T13:44:04.783Z,100433.34
2018-02-12T13:46:33.097Z,100427.09
2018-02-12T13:49:01.486Z,100425.91
2018-02-12T13:51:29.801Z,100431.22
2018-02-12T13:53:58.225Z,100429.31
2018-02-12T13:56:27.484Z,100424.70
2018-02-12T13:58:55.862Z,100428.87
2018-02-12T14:01:24.241Z,100426.23
2018-02-12T14:03:52.586Z,100437.66
2018-02-12T14:06:20.909Z,100432.23
2018-02-12T14:08:49.253Z,100432.34
2018-02-12T14:11:17.577Z,100434.34
2018-02-12T14:13:46.817Z,100437.89
2018-02-12T14:16:15.156Z,100434.52
2018-02-12T14:18:43.499Z,100439.37
2018-02-12T14:21:11.821Z,100442.68
2018-02-12T14:23:40.253Z,100450.54
2018-02-12T14:26:09.501Z,100454.49
2018-02-12T14:28:37.921Z,100462.30
2018-02-12T14:31:06.301Z,100462.73
2018-02-12T14:33:34.678Z,100466.41
2018-02-12T14:36:03.977Z,100466.76
2018-02-12T14:38:32.309Z,100465.51
2018-02-12T14:41:00.729Z,100470.11
2018-02-12T14:43:29.153Z,100472.98
2018-02-12T14:45:58.513Z,100469.47
2018-02-12T14:48:26.852Z,100470.35
2018-02-12T14:50:55.173Z,100486.41
2018-02-12T14:53:23.521Z,100482.98
2018-02-12T14:55:51.913Z,100493.09
2018-02-12T14:58:20.255Z,100506.83
2018-02-12T15:00:49.085Z,100517.02
2018-02-12T15:03:17.458Z,100516.50
2018-02-12T15:05:45.832Z,100509.56
2018-02-12T15:08:14.170Z,100507.30
2018-02-12T15:10:42.584Z,100512.11
2018-02-12T15:13:10.930Z,100514.29
2018-02-12T15:15:39.259Z,100522.06
2018-02-12T15:18:07.588Z,100530.47
2018-02-12T15:20:36.846Z,100544.88
2018-02-12T15:23:05.293Z,100539.58
2018-02-12T15:25:33.613Z,100544.28
2018-02-12T15:28:01.957Z,100535.05
2018-02-12T15:30:30.280Z,100535.70
2018-02-12T15:32:58.698Z,100537.12
2018-02-12T15:35:27.235Z,100535.36
2018-02-12T15:37:55.630Z,100531.22
2018-02-12T15:40:24.554Z,100530.62
2018-02-12T15:42:52.869Z,100520.80
2018-02-12T15:45:21.241Z,100545.82
2018-02-12T15:47:49.566Z,100585.00
2018-02-12T15:50:17.907Z,100606.66
2018-02-12T15:52:46.241Z,100605.30
2018-02-12T15:55:14.565Z,100622.42
2018-02-12T15:57:42.886Z,100621.81
2018-02-12T16:00:11.226Z,100638.55
2018-02-12T16:02:39.550Z,100630.53
2018-02-12T16:05:07.933Z,100612.28
2018-02-12T16:07:36.249Z,100604.86
2018-02-12T16:10:04.589Z,100611.70
2018-02-12T16:12:32.910Z,100615.67
2018-02-12T16:15:01.246Z,100618.75
2018-02-12T16:17:30.029Z,100619.59
2018-02-12T16:19:58.395Z,100635.39
2018-02-12T16:22:26.757Z,100641.41
2018-02-12T16:24:55.093Z,100646.36
2018-02-12T16:27:23.414Z,100647.32
2018-02-12T16:29:51.789Z,100648.74
2018-02-12T16:32:20.166Z,100638.33
2018-02-12T16:34:48.541Z,100628.37
2018-02-12T16:37:16.918Z,100634.50
2018-02-12T16:39:45.256Z,100633.66
2018-02-12T16:42:13.673Z,100637.52
2018-02-12T16:44:42.049Z,100636.20
2018-02-12T16:47:10.432Z,100638.86
2018-02-12T16:49:38.805Z,100638.83
2018-02-12T16:52:07.117Z,100639.67
2018-02-12T16:54:35.563Z,100643.70
2018-02-12T16:57:04.386Z,100643.75
2018-02-12T16:59:32.730Z,100648.03
2018-02-12T17:02:01.120Z,100642.39
2018-02-12T17:04:32.009Z,100640.02
2018-02-12T17:07:01.120Z,100643.08
2018-02-12T17:09:31.018Z,100646.27
2018-02-12T17:11:59.334Z,100646.82
2018-02-12T17:14:27.668Z,100646.83
2018-02-12T17:16:55.985Z,100656.06
2018-02-12T17:19:24.321Z,100654.36
2018-02-12T17:21:52.643Z,100650.48
2018-02-12T17:24:20.997Z,100657.43
2018-02-12T17:26:49.293Z,100662.29
2018-02-12T17:29:17.629Z,100671.39
2018-02-12T17:31:45.945Z,100667.75
2018-02-12T17:34:14.286Z,100670.39
2018-02-12T17:36:42.603Z,100676.05
2018-02-12T17:39:11.501Z,100673.48
2018-02-12T17:41:39.829Z,100674.36
2018-02-12T17:44:08.149Z,100674.84
2018-02-12T17:46:36.483Z,100674.90
2018-02-12T17:49:04.880Z,100682.74
2018-02-12T17:51:33.254Z,100685.71
2018-02-12T17:54:01.570Z,100687.03
2018-02-12T17:56:29.925Z,100691.44
2018-02-12T17:58:59.145Z,100696.38
2018-02-12T18:01:27.482Z,100705.05
2018-02-12T18:03:55.806Z,100705.97
2018-02-12T18:06:24.146Z,100702.55
2018-02-12T18:08:52.458Z,100699.90
2018-02-12T18:11:20.801Z,100695.53
2018-02-12T18:13:49.122Z,100694.63
2018-02-12T18:16:18.437Z,100697.14
2018-02-12T18:18:46.750Z,100707.16
2018-02-12T18:21:15.157Z,100707.25
2018-02-12T18:23:43.498Z,100703.38
2018-02-12T18:26:11.860Z,100717.74
2018-02-12T18:28:40.250Z,100712.09
2018-02-12T18:31:08.588Z,100715.58
2018-02-12T18:33:37.001Z,100719.95
2018-02-12T18:36:05.350Z,100723.78
2018-02-12T18:38:34.450Z,100719.06
2018-02-12T18:41:02.851Z,100723.39
2018-02-12T18:43:31.225Z,100728.56
2018-02-12T18:45:59.569Z,100724.30
2018-02-12T18:48:27.894Z,100729.52
2018-02-12T18:50:56.250Z,100730.39
2018-02-12T18:53:24.721Z,100721.25
2018-02-12T18:55:53.118Z,100726.45
2018-02-12T18:58:21.451Z,100724.66
2018-02-12T19:00:49.797Z,100728.14
2018-02-12T19:03:18.117Z,100727.36
2018-02-12T19:05:47.238Z,100728.20
2018-02-12T19:08:15.612Z,100736.05
2018-02-12T19:10:43.995Z,100736.91
2018-02-12T19:13:12.321Z,100739.89
2018-02-12T19:15:40.691Z,100740.78
2018-02-12T19:18:09.009Z,100741.64
2018-02-12T19:20:37.401Z,100738.59
2018-02-12T19:23:05.773Z,100740.28
2018-02-12T19:25:34.134Z,100744.16
2018-02-12T19:28:02.533Z,100750.24
2018-02-12T19:30:30.886Z,100742.00
2018-02-12T19:32:59.290Z,100739.79
2018-02-12T19:35:27.629Z,100741.53
2018-02-12T19:37:55.949Z,100746.03
2018-02-12T19:40:24.447Z,100743.91
2018-02-12T19:42:54.065Z,100740.84
2018-02-12T19:45:22.458Z,100746.97
2018-02-12T19:47:50.886Z,100748.22
2018-02-12T19:50:19.201Z,100749.50
2018-02-12T19:52:47.552Z,100748.18
2018-02-12T19:55:15.861Z,100746.81
2018-02-12T19:57:44.498Z,100752.48
2018-02-12T20:00:12.821Z,100752.94
2018-02-12T20:02:41.246Z,100755.66
2018-02-12T20:05:09.568Z,100763.50
2018-02-12T20:07:38.000Z,100760.06
2018-02-12T20:10:06.326Z,100763.98
2018-02-12T20:12:34.670Z,100762.67
2018-02-12T20:15:03.029Z,100763.13
2018-02-12T20:17:31.406Z,100765.73
2018-02-12T20:19:59.785Z,100770.94
2018-02-12T20:22:28.135Z,100767.91
2018-02-12T20:24:56.461Z,100777.47
2018-02-12T20:27:24.826Z,100777.02
2018-02-12T20:29:53.246Z,100773.95
2018-02-12T20:32:21.565Z,100773.50
2018-02-12T20:34:49.888Z,100770.49
2018-02-12T20:37:22.089Z,100774.40
2018-02-12T20:39:50.524Z,100779.59
2018-02-12T20:42:18.874Z,100777.84
2018-02-12T20:44:47.193Z,100778.28
2018-02-12T20:47:15.630Z,100778.72
2018-02-12T20:49:43.997Z,100783.97
2018-02-12T20:52:12.342Z,100786.61
2018-02-12T20:54:40.753Z,100779.20
2018-02-12T20:57:09.097Z,100781.84
2018-02-12T20:59:37.425Z,100783.15
2018-02-12T21:02:05.772Z,100780.95
2018-02-12T21:04:34.160Z,100785.73
2018-02-12T21:07:02.509Z,100780.52
2018-02-12T21:09:30.824Z,100784.88
2018-02-12T21:11:59.162Z,100781.39
2018-02-12T21:14:27.485Z,100780.91
2018-02-12T21:16:55.828Z,100785.72
2018-02-12T21:19:24.213Z,100787.86
2018-02-12T21:21:52.593Z,100785.70
2018-02-12T21:24:20.918Z,100792.25
2018-02-12T21:26:49.261Z,100788.33
2018-02-12T21:29:17.612Z,100793.96
2018-02-12T21:31:45.962Z,100789.63
2018-02-12T21:34:14.637Z,100790.94
2018-02-12T21:36:43.034Z,100793.14
2018-02-12T21:39:11.364Z,100792.25
2018-02-12T21:41:39.713Z,100792.69
2018-02-12T21:44:08.034Z,100793.59
2018-02-12T21:46:36.465Z,100797.50
2018-02-12T21:49:04.842Z,100790.98
2018-02-12T21:51:33.230Z,100792.70
2018-02-12T21:54:01.576Z,100794.89
2018-02-12T21:56:29.977Z,100791.84
2018-02-12T21:58:58.358Z,100794.01
2018-02-12T22:01:26.682Z,100791.41
2018-02-12T22:03:55.113Z,100792.70
2018-02-12T22:06:23.485Z,100787.06
2018-02-12T22:08:51.838Z,100790.97
2018-02-12T22:11:20.237Z,100792.28
2018-02-12T22:13:48.585Z,100794.88
2018-02-12T22:16:17.879Z,100794.45
2018-02-12T22:18:46.298Z,100794.89
2018-02-12T22:21:14.626Z,100794.91
2018-02-12T22:23:43.054Z,100795.75
2018-02-12T22:26:11.385Z,100797.91
2018-02-12T22:28:39.733Z,100795.30
2018-02-12T22:31:08.088Z,100801.83
2018-02-12T22:33:36.457Z,100801.41
2018-02-12T22:36:04.833Z,100791.83
2018-02-12T22:38:33.181Z,100797.48
2018-02-12T22:41:01.596Z,100798.38
2018-02-12T22:43:29.942Z,100807.04
2018-02-12T22:45:58.286Z,100808.78
2018-02-12T22:48:26.665Z,100807.50
2018-02-12T22:50:55.098Z,100795.33
2018-02-12T22:53:23.473Z,100801.85
2018-02-12T22:55:51.806Z,100802.29
2018-02-12T22:58:20.229Z,100808.81
2018-02-12T23:00:48.565Z,100804.02
2018-02-12T23:03:16.985Z,100800.11
2018-02-12T23:05:45.465Z,100801.83
2018-02-12T23:08:13.794Z,100797.05
2018-02-12T23:10:42.222Z,100803.14
2018-02-12T23:13:10.571Z,100808.36
2018-02-12T23:15:38.889Z,100797.06
2018-02-12T23:18:07.233Z,100803.14
2018-02-12T23:20:35.564Z,100806.18
2018-02-12T23:23:03.902Z,100805.75
2018-02-12T23:25:32.229Z,100805.33
2018-02-12T23:28:00.648Z,100806.61
2018-02-12T23:30:29.029Z,100802.72
2018-02-12T23:32:57.404Z,100803.58
2018-02-12T23:35:25.729Z,100804.88
2018-02-12T23:37:54.074Z,100805.75
2018-02-12T23:40:22.397Z,100804.88
2018-02-12T23:42:50.816Z,100807.06
2018-02-12T23:45:19.189Z,100805.75
2018-02-12T23:47:47.569Z,100806.61
2018-02-12T23:50:15.949Z,100808.35
2018-02-12T23:52:44.325Z,100815.31
2018-02-12T23:55:12.702Z,100807.05
2018-02-12T23:57:41.034Z,100811.83
